KRFD/RFD METAR and TAF weather

Enter ICAO airport designator
Station Type Date Time Source
KRFD METAR 2020/11/27 01:54 UTC NOAA

KRFD 270154Z 19003KT 10SM OVC028 07/03 A3005 RMK AO2 SLP180 T00670033


Station Type Date Time Source
KRFD Decoded METAR 2020/11/27 01:54 UTC NOAA

GREATER ROCKFORD AIRPORT, IL, United States (KRFD) 42-12N 89-06W 221M
Nov 26, 2020 - 08:54 PM EST / 2020.11.27 0154 UTC
Wind: from the S (190 degrees) at 3 MPH (3 KT):0
Visibility: 10 mile(s):0
Sky conditions: overcast
Temperature: 44.1 F (6.7 C)
Dew Point: 37.9 F (3.3 C)
Relative Humidity: 78%
Pressure (altimeter): 30.05 in. Hg (1017 hPa)
ob: KRFD 270154Z 19003KT 10SM OVC028 07/03 A3005 RMK AO2 SLP180 T00670033
cycle: 2

Station Type Date Time Source
KRFD TAF 2020/11/26 18:42 UTC NOAA

TAF KRFD 261737Z 2618/2718 22012G18KT P6SM OVC020
FM262200 22007KT P6SM BKN020
TEMPO 2622/2702 SCT020
FM270700 30004KT P6SM BKN007 OVC020
FM271600 29006KT P6SM SCT020

Example: see airport list